sensor_id;sensor_type;location;lat;lon;timestamp;temperature;humidity
59067;DHT22;44854;50.838;4.438;2022-07-06T00:01:37;15.80;99.90
59067;DHT22;44854;50.838;4.438;2022-07-06T00:04:03;15.80;99.90
59067;DHT22;44854;50.838;4.438;2022-07-06T00:06:29;15.80;99.90
59067;DHT22;44854;50.838;4.438;2022-07-06T00:08:55;15.70;99.90
59067;DHT22;44854;50.838;4.438;2022-07-06T00:11:20;15.60;99.90
59067;DHT22;44854;50.838;4.438;2022-07-06T00:13:46;15.40;99.90
59067;DHT22;44854;50.838;4.438;2022-07-06T00:16:12;15.40;99.90
59067;DHT22;44854;50.838;4.438;2022-07-06T00:18:37;15.40;99.90
59067;DHT22;44854;50.838;4.438;2022-07-06T00:21:03;15.40;99.90
59067;DHT22;44854;50.838;4.438;2022-07-06T00:23:29;15.30;99.90
59067;DHT22;44854;50.838;4.438;2022-07-06T00:25:54;15.30;99.90
59067;DHT22;44854;50.838;4.438;2022-07-06T00:28:20;15.30;99.90
59067;DHT22;44854;50.838;4.438;2022-07-06T00:30:45;15.10;99.90
59067;DHT22;44854;50.838;4.438;2022-07-06T00:33:11;15.20;99.90
59067;DHT22;44854;50.838;4.438;2022-07-06T00:35:36;15.20;99.90
59067;DHT22;44854;50.838;4.438;2022-07-06T00:38:02;15.10;99.90
59067;DHT22;44854;50.838;4.438;2022-07-06T00:40:29;15.10;99.90
59067;DHT22;44854;50.838;4.438;2022-07-06T00:42:57;15.10;99.90
59067;DHT22;44854;50.838;4.438;2022-07-06T00:45:23;15.00;99.90
59067;DHT22;44854;50.838;4.438;2022-07-06T00:47:51;15.10;99.90
59067;DHT22;44854;50.838;4.438;2022-07-06T00:50:17;15.00;99.90
59067;DHT22;44854;50.838;4.438;2022-07-06T00:52:49;15.00;99.90
59067;DHT22;44854;50.838;4.438;2022-07-06T00:55:16;15.00;99.90
59067;DHT22;44854;50.838;4.438;2022-07-06T00:57:42;14.90;99.90
59067;DHT22;44854;50.838;4.438;2022-07-06T01:00:11;15.00;99.90
59067;DHT22;44854;50.838;4.438;2022-07-06T01:02:37;14.90;99.90
59067;DHT22;44854;50.838;4.438;2022-07-06T01:05:03;14.90;99.90
59067;DHT22;44854;50.838;4.438;2022-07-06T01:07:29;14.80;99.90
59067;DHT22;44854;50.838;4.438;2022-07-06T01:09:55;14.80;99.90
59067;DHT22;44854;50.838;4.438;2022-07-06T01:12:20;14.70;99.90
59067;DHT22;44854;50.838;4.438;2022-07-06T01:14:46;14.60;99.90
59067;DHT22;44854;50.838;4.438;2022-07-06T01:17:13;14.50;99.90
59067;DHT22;44854;50.838;4.438;2022-07-06T01:19:39;14.50;99.90
59067;DHT22;44854;50.838;4.438;2022-07-06T01:22:05;14.60;99.90
59067;DHT22;44854;50.838;4.438;2022-07-06T01:24:30;14.70;99.90
59067;DHT22;44854;50.838;4.438;2022-07-06T01:26:56;14.70;99.90
59067;DHT22;44854;50.838;4.438;2022-07-06T01:29:22;14.70;99.90
59067;DHT22;44854;50.838;4.438;2022-07-06T05:32:03;14.30;99.90
59067;DHT22;44854;50.838;4.438;2022-07-06T05:34:29;14.30;99.90
59067;DHT22;44854;50.838;4.438;2022-07-06T05:36:55;14.40;99.90
59067;DHT22;44854;50.838;4.438;2022-07-06T05:39:21;14.50;99.90
59067;DHT22;44854;50.838;4.438;2022-07-06T05:41:48;14.50;99.90
59067;DHT22;44854;50.838;4.438;2022-07-06T05:44:13;14.70;99.90
59067;DHT22;44854;50.838;4.438;2022-07-06T05:46:39;14.70;99.90
59067;DHT22;44854;50.838;4.438;2022-07-06T05:49:05;14.80;99.90
59067;DHT22;44854;50.838;4.438;2022-07-06T05:51:49;15.00;99.90
59067;DHT22;44854;50.838;4.438;2022-07-06T05:54:15;15.20;99.90
59067;DHT22;44854;50.838;4.438;2022-07-06T05:56:40;15.30;99.90
59067;DHT22;44854;50.838;4.438;2022-07-06T05:59:06;15.50;99.90
59067;DHT22;44854;50.838;4.438;2022-07-06T06:01:31;15.60;99.90
59067;DHT22;44854;50.838;4.438;2022-07-06T06:03:57;15.70;99.90
59067;DHT22;44854;50.838;4.438;2022-07-06T06:06:25;15.80;99.90
59067;DHT22;44854;50.838;4.438;2022-07-06T06:08:50;15.90;99.90
59067;DHT22;44854;50.838;4.438;2022-07-06T06:11:16;16.20;99.90
59067;DHT22;44854;50.838;4.438;2022-07-06T06:13:41;16.30;99.90
59067;DHT22;44854;50.838;4.438;2022-07-06T06:16:07;16.40;99.90
59067;DHT22;44854;50.838;4.438;2022-07-06T06:18:33;16.50;99.90
59067;DHT22;44854;50.838;4.438;2022-07-06T06:20:58;16.70;99.90
59067;DHT22;44854;50.838;4.438;2022-07-06T06:23:24;16.70;99.90
59067;DHT22;44854;50.838;4.438;2022-07-06T06:25:49;16.90;99.90
59067;DHT22;44854;50.838;4.438;2022-07-06T06:28:15;17.10;99.90
59067;DHT22;44854;50.838;4.438;2022-07-06T06:30:40;17.20;99.90
59067;DHT22;44854;50.838;4.438;2022-07-06T06:33:10;17.30;99.90
59067;DHT22;44854;50.838;4.438;2022-07-06T06:35:36;17.50;99.90
59067;DHT22;44854;50.838;4.438;2022-07-06T06:38:02;17.60;99.90
59067;DHT22;44854;50.838;4.438;2022-07-06T06:40:27;17.80;99.90
59067;DHT22;44854;50.838;4.438;2022-07-06T06:42:53;17.90;99.90
59067;DHT22;44854;50.838;4.438;2022-07-06T06:45:18;18.20;99.90
59067;DHT22;44854;50.838;4.438;2022-07-06T06:47:45;18.30;99.90
59067;DHT22;44854;50.838;4.438;2022-07-06T06:50:11;18.40;99.90
59067;DHT22;44854;50.838;4.438;2022-07-06T06:52:36;18.50;99.90
59067;DHT22;44854;50.838;4.438;2022-07-06T06:55:02;18.60;99.90
59067;DHT22;44854;50.838;4.438;2022-07-06T06:57:27;18.70;99.90
59067;DHT22;44854;50.838;4.438;2022-07-06T06:59:54;18.60;99.90
59067;DHT22;44854;50.838;4.438;2022-07-06T07:02:20;18.60;99.90
59067;DHT22;44854;50.838;4.438;2022-07-06T07:04:45;18.80;99.90
59067;DHT22;44854;50.838;4.438;2022-07-06T07:07:11;18.90;99.80
59067;DHT22;44854;50.838;4.438;2022-07-06T07:09:36;19.00;99.30
59067;DHT22;44854;50.838;4.438;2022-07-06T07:12:02;19.20;98.10
59067;DHT22;44854;50.838;4.438;2022-07-06T07:14:27;19.30;97.70
59067;DHT22;44854;50.838;4.438;2022-07-06T07:16:53;19.50;97.60
59067;DHT22;44854;50.838;4.438;2022-07-06T07:19:18;19.30;96.50
59067;DHT22;44854;50.838;4.438;2022-07-06T07:21:44;19.40;96.80
59067;DHT22;44854;50.838;4.438;2022-07-06T07:24:09;19.40;96.40
59067;DHT22;44854;50.838;4.438;2022-07-06T07:26:35;19.30;96.40
59067;DHT22;44854;50.838;4.438;2022-07-06T07:29:01;19.20;96.40
59067;DHT22;44854;50.838;4.438;2022-07-06T07:31:26;19.30;95.60
59067;DHT22;44854;50.838;4.438;2022-07-06T07:33:52;19.10;95.90
59067;DHT22;44854;50.838;4.438;2022-07-06T07:36:17;19.20;96.20
59067;DHT22;44854;50.838;4.438;2022-07-06T07:38:43;19.50;95.80
59067;DHT22;44854;50.838;4.438;2022-07-06T07:41:08;19.60;95.10
59067;DHT22;44854;50.838;4.438;2022-07-06T07:43:36;19.50;94.80
59067;DHT22;44854;50.838;4.438;2022-07-06T07:46:02;19.70;94.50
59067;DHT22;44854;50.838;4.438;2022-07-06T07:48:27;19.50;94.90
59067;DHT22;44854;50.838;4.438;2022-07-06T07:50:53;19.80;94.40
59067;DHT22;44854;50.838;4.438;2022-07-06T07:53:18;19.70;94.50
59067;DHT22;44854;50.838;4.438;2022-07-06T07:55:44;19.70;94.90
59067;DHT22;44854;50.838;4.438;2022-07-06T07:58:10;19.70;94.50
59067;DHT22;44854;50.838;4.438;2022-07-06T08:00:35;19.70;94.20
59067;DHT22;44854;50.838;4.438;2022-07-06T08:03:01;19.80;94.50
59067;DHT22;44854;50.838;4.438;2022-07-06T08:05:26;19.80;95.00
59067;DHT22;44854;50.838;4.438;2022-07-06T08:07:52;19.60;94.90
59067;DHT22;44854;50.838;4.438;2022-07-06T08:10:18;19.90;95.10
59067;DHT22;44854;50.838;4.438;2022-07-06T08:12:44;19.90;94.70
59067;DHT22;44854;50.838;4.438;2022-07-06T08:15:09;20.00;95.20
59067;DHT22;44854;50.838;4.438;2022-07-06T08:17:35;20.20;95.20
59067;DHT22;44854;50.838;4.438;2022-07-06T08:20:00;20.30;95.00
59067;DHT22;44854;50.838;4.438;2022-07-06T08:22:26;20.40;94.80
59067;DHT22;44854;50.838;4.438;2022-07-06T08:24:52;20.20;94.60
59067;DHT22;44854;50.838;4.438;2022-07-06T08:27:17;20.10;94.90
59067;DHT22;44854;50.838;4.438;2022-07-06T08:29:43;20.10;95.10
59067;DHT22;44854;50.838;4.438;2022-07-06T08:32:09;20.20;95.40
59067;DHT22;44854;50.838;4.438;2022-07-06T08:34:34;20.40;95.40
59067;DHT22;44854;50.838;4.438;2022-07-06T08:37:00;20.60;94.90
59067;DHT22;44854;50.838;4.438;2022-07-06T08:39:25;20.80;94.60
59067;DHT22;44854;50.838;4.438;2022-07-06T08:41:51;20.90;94.80
59067;DHT22;44854;50.838;4.438;2022-07-06T08:44:17;20.70;94.90
59067;DHT22;44854;50.838;4.438;2022-07-06T08:46:43;20.40;95.20
59067;DHT22;44854;50.838;4.438;2022-07-06T08:49:12;20.30;95.60
59067;DHT22;44854;50.838;4.438;2022-07-06T08:51:37;20.40;95.30
59067;DHT22;44854;50.838;4.438;2022-07-06T08:54:03;20.30;95.10
59067;DHT22;44854;50.838;4.438;2022-07-06T08:56:29;20.20;95.30
59067;DHT22;44854;50.838;4.438;2022-07-06T08:58:55;20.60;95.20
59067;DHT22;44854;50.838;4.438;2022-07-06T09:01:21;21.00;94.50
59067;DHT22;44854;50.838;4.438;2022-07-06T09:03:48;21.20;93.90
59067;DHT22;44854;50.838;4.438;2022-07-06T09:06:14;21.30;94.00
59067;DHT22;44854;50.838;4.438;2022-07-06T09:08:41;21.70;93.70
59067;DHT22;44854;50.838;4.438;2022-07-06T09:11:08;21.90;93.00
59067;DHT22;44854;50.838;4.438;2022-07-06T09:13:33;21.90;92.70
59067;DHT22;44854;50.838;4.438;2022-07-06T09:16:09;22.00;92.20
59067;DHT22;44854;50.838;4.438;2022-07-06T09:18:36;21.80;93.00
59067;DHT22;44854;50.838;4.438;2022-07-06T09:21:02;21.50;92.80
59067;DHT22;44854;50.838;4.438;2022-07-06T09:23:27;21.20;93.60
59067;DHT22;44854;50.838;4.438;2022-07-06T09:25:53;21.30;93.50
59067;DHT22;44854;50.838;4.438;2022-07-06T09:28:20;21.20;93.20
59067;DHT22;44854;50.838;4.438;2022-07-06T09:30:45;21.20;93.20
59067;DHT22;44854;50.838;4.438;2022-07-06T09:33:12;21.40;93.00
59067;DHT22;44854;50.838;4.438;2022-07-06T09:35:42;21.40;92.70
59067;DHT22;44854;50.838;4.438;2022-07-06T09:38:11;21.70;92.30
59067;DHT22;44854;50.838;4.438;2022-07-06T09:40:39;21.90;92.10
59067;DHT22;44854;50.838;4.438;2022-07-06T09:43:11;21.90;92.40
59067;DHT22;44854;50.838;4.438;2022-07-06T09:45:41;22.00;93.40
59067;DHT22;44854;50.838;4.438;2022-07-06T09:48:16;21.80;92.70
59067;DHT22;44854;50.838;4.438;2022-07-06T09:50:55;21.60;92.30
59067;DHT22;44854;50.838;4.438;2022-07-06T09:53:22;21.30;92.40
59067;DHT22;44854;50.838;4.438;2022-07-06T09:55:48;21.60;92.20
59067;DHT22;44854;50.838;4.438;2022-07-06T09:58:14;21.70;92.00
59067;DHT22;44854;50.838;4.438;2022-07-06T10:00:43;21.60;92.10
59067;DHT22;44854;50.838;4.438;2022-07-06T10:03:09;21.80;91.70
59067;DHT22;44854;50.838;4.438;2022-07-06T10:05:39;22.10;91.50
59067;DHT22;44854;50.838;4.438;2022-07-06T10:08:06;22.20;91.20
59067;DHT22;44854;50.838;4.438;2022-07-06T10:10:35;22.00;91.40
59067;DHT22;44854;50.838;4.438;2022-07-06T10:13:01;21.90;91.90
59067;DHT22;44854;50.838;4.438;2022-07-06T10:15:27;21.80;92.20
59067;DHT22;44854;50.838;4.438;2022-07-06T10:17:54;21.60;91.70
59067;DHT22;44854;50.838;4.438;2022-07-06T10:20:20;21.40;92.00
59067;DHT22;44854;50.838;4.438;2022-07-06T10:22:49;21.40;91.90
59067;DHT22;44854;50.838;4.438;2022-07-06T10:25:18;21.70;92.30
59067;DHT22;44854;50.838;4.438;2022-07-06T10:27:44;21.70;92.30
59067;DHT22;44854;50.838;4.438;2022-07-06T10:30:11;21.70;91.80
59067;DHT22;44854;50.838;4.438;2022-07-06T10:32:37;21.60;91.60
59067;DHT22;44854;50.838;4.438;2022-07-06T10:35:04;21.90;91.80
59067;DHT22;44854;50.838;4.438;2022-07-06T10:37:30;21.80;91.20
59067;DHT22;44854;50.838;4.438;2022-07-06T10:39:58;22.10;91.00
59067;DHT22;44854;50.838;4.438;2022-07-06T10:42:42;22.30;90.10
59067;DHT22;44854;50.838;4.438;2022-07-06T10:45:09;22.30;90.70
59067;DHT22;44854;50.838;4.438;2022-07-06T10:47:35;21.90;91.10
59067;DHT22;44854;50.838;4.438;2022-07-06T10:50:02;22.10;91.60
59067;DHT22;44854;50.838;4.438;2022-07-06T10:55:46;22.30;90.80
59067;DHT22;44854;50.838;4.438;2022-07-06T10:58:03;22.00;91.00
59067;DHT22;44854;50.838;4.438;2022-07-06T11:03:35;22.30;90.30
59067;DHT22;44854;50.838;4.438;2022-07-06T11:06:02;22.50;90.20
59067;DHT22;44854;50.838;4.438;2022-07-06T11:11:14;23.00;88.90
59067;DHT22;44854;50.838;4.438;2022-07-06T11:14:01;22.70;89.00
59067;DHT22;44854;50.838;4.438;2022-07-06T11:16:27;22.30;90.10
59067;DHT22;44854;50.838;4.438;2022-07-06T11:19:12;22.30;90.40
59067;DHT22;44854;50.838;4.438;2022-07-06T11:24:05;22.50;89.90
59067;DHT22;44854;50.838;4.438;2022-07-06T11:26:31;22.80;89.70
59067;DHT22;44854;50.838;4.438;2022-07-06T11:28:58;22.90;89.70
59067;DHT22;44854;50.838;4.438;2022-07-06T11:31:24;22.60;90.10
59067;DHT22;44854;50.838;4.438;2022-07-06T11:33:49;22.30;90.60
59067;DHT22;44854;50.838;4.438;2022-07-06T11:36:19;22.20;90.60
59067;DHT22;44854;50.838;4.438;2022-07-06T11:38:45;22.30;90.40
59067;DHT22;44854;50.838;4.438;2022-07-06T11:41:11;22.30;90.20
59067;DHT22;44854;50.838;4.438;2022-07-06T11:43:39;22.50;90.30
59067;DHT22;44854;50.838;4.438;2022-07-06T11:46:20;22.50;90.20
59067;DHT22;44854;50.838;4.438;2022-07-06T11:48:47;22.80;89.80
59067;DHT22;44854;50.838;4.438;2022-07-06T11:51:12;23.10;89.30
59067;DHT22;44854;50.838;4.438;2022-07-06T11:53:42;23.40;88.50
59067;DHT22;44854;50.838;4.438;2022-07-06T11:56:08;23.70;87.90
59067;DHT22;44854;50.838;4.438;2022-07-06T11:58:36;23.80;86.60
59067;DHT22;44854;50.838;4.438;2022-07-06T12:01:07;23.70;85.10
59067;DHT22;44854;50.838;4.438;2022-07-06T12:03:33;23.60;84.50
59067;DHT22;44854;50.838;4.438;2022-07-06T12:06:05;23.50;85.10
59067;DHT22;44854;50.838;4.438;2022-07-06T12:08:31;23.60;84.60
59067;DHT22;44854;50.838;4.438;2022-07-06T12:10:59;24.10;84.70
59067;DHT22;44854;50.838;4.438;2022-07-06T12:13:25;24.10;84.10
59067;DHT22;44854;50.838;4.438;2022-07-06T12:15:50;24.00;83.40
59067;DHT22;44854;50.838;4.438;2022-07-06T12:18:16;23.40;83.80
59067;DHT22;44854;50.838;4.438;2022-07-06T12:20:42;23.00;85.50
59067;DHT22;44854;50.838;4.438;2022-07-06T12:23:07;23.20;85.30
59067;DHT22;44854;50.838;4.438;2022-07-06T12:25:34;23.30;85.60
59067;DHT22;44854;50.838;4.438;2022-07-06T12:27:59;23.30;86.80
59067;DHT22;44854;50.838;4.438;2022-07-06T12:30:25;23.60;85.70
59067;DHT22;44854;50.838;4.438;2022-07-06T12:35:35;23.90;83.20
59067;DHT22;44854;50.838;4.438;2022-07-06T12:38:00;23.70;85.40
59067;DHT22;44854;50.838;4.438;2022-07-06T12:40:26;23.70;84.40
59067;DHT22;44854;50.838;4.438;2022-07-06T12:42:55;23.80;84.80
59067;DHT22;44854;50.838;4.438;2022-07-06T12:45:26;23.80;85.80
59067;DHT22;44854;50.838;4.438;2022-07-06T12:50:35;23.60;85.60
59067;DHT22;44854;50.838;4.438;2022-07-06T12:53:01;23.80;84.50
59067;DHT22;44854;50.838;4.438;2022-07-06T12:55:27;24.10;84.40
59067;DHT22;44854;50.838;4.438;2022-07-06T12:57:53;24.40;84.50
59067;DHT22;44854;50.838;4.438;2022-07-06T13:00:19;24.10;83.30
59067;DHT22;44854;50.838;4.438;2022-07-06T13:02:47;23.90;83.40
59067;DHT22;44854;50.838;4.438;2022-07-06T13:05:14;23.80;84.70
59067;DHT22;44854;50.838;4.438;2022-07-06T13:07:46;23.40;86.30
59067;DHT22;44854;50.838;4.438;2022-07-06T13:10:13;23.60;87.50
59067;DHT22;44854;50.838;4.438;2022-07-06T13:12:39;23.90;86.70
59067;DHT22;44854;50.838;4.438;2022-07-06T13:15:06;24.10;84.70
59067;DHT22;44854;50.838;4.438;2022-07-06T13:17:32;24.30;85.60
59067;DHT22;44854;50.838;4.438;2022-07-06T13:19:58;24.30;85.50
59067;DHT22;44854;50.838;4.438;2022-07-06T13:22:23;24.40;84.50
59067;DHT22;44854;50.838;4.438;2022-07-06T13:24:49;24.60;84.60
59067;DHT22;44854;50.838;4.438;2022-07-06T13:27:14;24.00;83.70
59067;DHT22;44854;50.838;4.438;2022-07-06T13:29:40;24.00;84.50
59067;DHT22;44854;50.838;4.438;2022-07-06T13:32:05;24.00;83.50
59067;DHT22;44854;50.838;4.438;2022-07-06T13:34:31;23.90;83.20
59067;DHT22;44854;50.838;4.438;2022-07-06T13:36:57;24.00;83.40
59067;DHT22;44854;50.838;4.438;2022-07-06T13:39:22;23.80;85.70
59067;DHT22;44854;50.838;4.438;2022-07-06T13:41:48;23.80;85.60
59067;DHT22;44854;50.838;4.438;2022-07-06T13:44:16;23.80;85.40
59067;DHT22;44854;50.838;4.438;2022-07-06T13:46:42;23.90;85.70
59067;DHT22;44854;50.838;4.438;2022-07-06T13:49:08;23.70;85.80
59067;DHT22;44854;50.838;4.438;2022-07-06T13:51:34;23.70;86.60
59067;DHT22;44854;50.838;4.438;2022-07-06T13:53:59;23.70;86.10
59067;DHT22;44854;50.838;4.438;2022-07-06T13:56:25;23.80;86.00
59067;DHT22;44854;50.838;4.438;2022-07-06T13:58:51;23.90;85.30
59067;DHT22;44854;50.838;4.438;2022-07-06T14:01:16;23.70;86.20
59067;DHT22;44854;50.838;4.438;2022-07-06T14:03:42;23.60;85.80
59067;DHT22;44854;50.838;4.438;2022-07-06T14:06:08;23.80;86.00
59067;DHT22;44854;50.838;4.438;2022-07-06T14:08:34;23.80;84.70
59067;DHT22;44854;50.838;4.438;2022-07-06T14:11:00;23.70;84.70
59067;DHT22;44854;50.838;4.438;2022-07-06T14:13:26;23.80;85.00
59067;DHT22;44854;50.838;4.438;2022-07-06T14:15:52;24.00;86.20
59067;DHT22;44854;50.838;4.438;2022-07-06T14:18:18;24.30;87.10
59067;DHT22;44854;50.838;4.438;2022-07-06T14:20:47;24.30;84.10
59067;DHT22;44854;50.838;4.438;2022-07-06T14:23:13;24.20;84.40
59067;DHT22;44854;50.838;4.438;2022-07-06T14:25:39;23.80;86.20
59067;DHT22;44854;50.838;4.438;2022-07-06T14:28:05;23.60;86.20
59067;DHT22;44854;50.838;4.438;2022-07-06T14:30:32;23.80;86.70
59067;DHT22;44854;50.838;4.438;2022-07-06T14:32:58;24.00;85.90
59067;DHT22;44854;50.838;4.438;2022-07-06T14:35:24;24.30;87.30
59067;DHT22;44854;50.838;4.438;2022-07-06T14:37:50;24.30;84.90
59067;DHT22;44854;50.838;4.438;2022-07-06T14:40:16;24.10;84.50
59067;DHT22;44854;50.838;4.438;2022-07-06T14:42:42;23.80;85.30
59067;DHT22;44854;50.838;4.438;2022-07-06T14:45:07;23.80;86.10
59067;DHT22;44854;50.838;4.438;2022-07-06T14:47:33;23.90;86.50
59067;DHT22;44854;50.838;4.438;2022-07-06T14:49:58;23.90;85.80
59067;DHT22;44854;50.838;4.438;2022-07-06T14:52:24;23.90;85.10
59067;DHT22;44854;50.838;4.438;2022-07-06T14:54:49;24.10;85.60
59067;DHT22;44854;50.838;4.438;2022-07-06T14:57:15;24.10;85.10
59067;DHT22;44854;50.838;4.438;2022-07-06T14:59:41;23.90;85.70
59067;DHT22;44854;50.838;4.438;2022-07-06T15:02:07;23.80;85.80
59067;DHT22;44854;50.838;4.438;2022-07-06T15:04:32;23.90;85.60
59067;DHT22;44854;50.838;4.438;2022-07-06T15:06:58;24.30;85.80
59067;DHT22;44854;50.838;4.438;2022-07-06T15:09:24;24.20;85.10
59067;DHT22;44854;50.838;4.438;2022-07-06T15:11:51;24.20;85.30
59067;DHT22;44854;50.838;4.438;2022-07-06T15:14:17;24.10;86.40
59067;DHT22;44854;50.838;4.438;2022-07-06T15:16:43;24.20;86.10
59067;DHT22;44854;50.838;4.438;2022-07-06T15:19:09;24.50;86.30
59067;DHT22;44854;50.838;4.438;2022-07-06T15:21:35;24.30;85.40
59067;DHT22;44854;50.838;4.438;2022-07-06T15:24:00;24.00;84.80
59067;DHT22;44854;50.838;4.438;2022-07-06T15:26:26;24.10;84.70
59067;DHT22;44854;50.838;4.438;2022-07-06T15:28:51;24.20;85.00
59067;DHT22;44854;50.838;4.438;2022-07-06T15:31:17;24.20;85.60
59067;DHT22;44854;50.838;4.438;2022-07-06T15:33:42;24.10;86.10
59067;DHT22;44854;50.838;4.438;2022-07-06T15:36:11;24.10;86.00
59067;DHT22;44854;50.838;4.438;2022-07-06T15:38:36;24.00;85.60
59067;DHT22;44854;50.838;4.438;2022-07-06T15:41:02;24.00;85.70
59067;DHT22;44854;50.838;4.438;2022-07-06T15:43:31;24.00;86.00
59067;DHT22;44854;50.838;4.438;2022-07-06T15:45:58;24.00;86.80
59067;DHT22;44854;50.838;4.438;2022-07-06T15:48:25;24.20;86.80
59067;DHT22;44854;50.838;4.438;2022-07-06T15:50:51;24.30;86.00
59067;DHT22;44854;50.838;4.438;2022-07-06T15:53:16;24.10;85.30
59067;DHT22;44854;50.838;4.438;2022-07-06T15:55:43;24.10;85.70
59067;DHT22;44854;50.838;4.438;2022-07-06T15:58:09;24.20;85.50
59067;DHT22;44854;50.838;4.438;2022-07-06T16:00:34;24.30;85.90
59067;DHT22;44854;50.838;4.438;2022-07-06T16:03:00;24.10;85.40
59067;DHT22;44854;50.838;4.438;2022-07-06T16:05:26;24.00;85.40
59067;DHT22;44854;50.838;4.438;2022-07-06T16:07:52;23.90;86.30
59067;DHT22;44854;50.838;4.438;2022-07-06T16:10:17;24.10;86.70
59067;DHT22;44854;50.838;4.438;2022-07-06T16:12:43;24.10;86.40
59067;DHT22;44854;50.838;4.438;2022-07-06T16:15:08;24.00;86.40
59067;DHT22;44854;50.838;4.438;2022-07-06T16:17:34;23.70;86.60
59067;DHT22;44854;50.838;4.438;2022-07-06T16:20:00;23.70;88.00
59067;DHT22;44854;50.838;4.438;2022-07-06T16:22:25;23.80;88.00
59067;DHT22;44854;50.838;4.438;2022-07-06T16:24:52;23.70;87.70
59067;DHT22;44854;50.838;4.438;2022-07-06T16:27:18;23.60;87.40
59067;DHT22;44854;50.838;4.438;2022-07-06T16:29:44;23.60;88.20
59067;DHT22;44854;50.838;4.438;2022-07-06T16:32:10;23.50;88.30
59067;DHT22;44854;50.838;4.438;2022-07-06T16:34:35;23.70;87.90
59067;DHT22;44854;50.838;4.438;2022-07-06T16:37:01;23.80;87.20
59067;DHT22;44854;50.838;4.438;2022-07-06T16:39:27;23.90;87.60
59067;DHT22;44854;50.838;4.438;2022-07-06T16:41:53;24.10;86.60
59067;DHT22;44854;50.838;4.438;2022-07-06T16:44:18;24.10;86.50
59067;DHT22;44854;50.838;4.438;2022-07-06T16:46:44;24.10;87.10
59067;DHT22;44854;50.838;4.438;2022-07-06T16:49:09;24.00;87.10
59067;DHT22;44854;50.838;4.438;2022-07-06T16:51:35;23.90;87.10
59067;DHT22;44854;50.838;4.438;2022-07-06T16:54:00;23.90;87.60
59067;DHT22;44854;50.838;4.438;2022-07-06T16:56:26;24.00;87.50
59067;DHT22;44854;50.838;4.438;2022-07-06T16:58:52;24.20;87.30
59067;DHT22;44854;50.838;4.438;2022-07-06T17:01:17;24.20;87.30
59067;DHT22;44854;50.838;4.438;2022-07-06T17:03:43;24.20;87.70
59067;DHT22;44854;50.838;4.438;2022-07-06T17:06:08;23.80;88.10
59067;DHT22;44854;50.838;4.438;2022-07-06T17:08:34;23.80;89.10
59067;DHT22;44854;50.838;4.438;2022-07-06T17:10:59;23.80;89.40
59067;DHT22;44854;50.838;4.438;2022-07-06T17:13:25;23.90;88.50
59067;DHT22;44854;50.838;4.438;2022-07-06T17:15:51;23.80;89.00
59067;DHT22;44854;50.838;4.438;2022-07-06T17:18:17;23.70;89.40
59067;DHT22;44854;50.838;4.438;2022-07-06T17:20:42;23.70;90.00
59067;DHT22;44854;50.838;4.438;2022-07-06T17:23:08;23.80;90.00
59067;DHT22;44854;50.838;4.438;2022-07-06T17:25:34;23.60;89.90
59067;DHT22;44854;50.838;4.438;2022-07-06T17:27:59;23.40;90.30
59067;DHT22;44854;50.838;4.438;2022-07-06T17:30:25;23.50;90.60
59067;DHT22;44854;50.838;4.438;2022-07-06T17:32:51;23.50;90.30
59067;DHT22;44854;50.838;4.438;2022-07-06T17:35:17;23.60;90.50
59067;DHT22;44854;50.838;4.438;2022-07-06T17:37:42;23.30;90.60
59067;DHT22;44854;50.838;4.438;2022-07-06T17:40:08;23.40;90.80
59067;DHT22;44854;50.838;4.438;2022-07-06T17:42:34;23.30;91.00
59067;DHT22;44854;50.838;4.438;2022-07-06T17:45:00;23.30;91.20
59067;DHT22;44854;50.838;4.438;2022-07-06T17:47:26;23.10;91.40
59067;DHT22;44854;50.838;4.438;2022-07-06T17:49:51;23.10;91.50
59067;DHT22;44854;50.838;4.438;2022-07-06T17:52:17;23.20;91.50
59067;DHT22;44854;50.838;4.438;2022-07-06T17:54:43;23.10;91.80
59067;DHT22;44854;50.838;4.438;2022-07-06T17:57:08;23.00;92.20
59067;DHT22;44854;50.838;4.438;2022-07-06T17:59:34;22.90;92.40
59067;DHT22;44854;50.838;4.438;2022-07-06T18:01:59;22.90;92.70
59067;DHT22;44854;50.838;4.438;2022-07-06T18:04:25;22.80;92.80
59067;DHT22;44854;50.838;4.438;2022-07-06T18:06:50;22.70;93.20
59067;DHT22;44854;50.838;4.438;2022-07-06T18:09:16;22.60;93.10
59067;DHT22;44854;50.838;4.438;2022-07-06T18:11:42;22.50;93.60
59067;DHT22;44854;50.838;4.438;2022-07-06T18:14:07;22.50;93.50
59067;DHT22;44854;50.838;4.438;2022-07-06T18:16:33;22.50;93.50
59067;DHT22;44854;50.838;4.438;2022-07-06T18:18:58;22.50;93.20
59067;DHT22;44854;50.838;4.438;2022-07-06T18:21:24;22.50;93.30
59067;DHT22;44854;50.838;4.438;2022-07-06T18:23:50;22.50;93.20
59067;DHT22;44854;50.838;4.438;2022-07-06T18:26:16;22.50;93.30
59067;DHT22;44854;50.838;4.438;2022-07-06T18:28:41;22.50;93.30
59067;DHT22;44854;50.838;4.438;2022-07-06T18:31:07;22.40;93.10
59067;DHT22;44854;50.838;4.438;2022-07-06T18:33:32;22.40;93.10
59067;DHT22;44854;50.838;4.438;2022-07-06T18:36:00;22.40;93.00
59067;DHT22;44854;50.838;4.438;2022-07-06T18:38:26;22.40;93.00
59067;DHT22;44854;50.838;4.438;2022-07-06T18:40:52;22.50;93.00
59067;DHT22;44854;50.838;4.438;2022-07-06T18:43:17;22.50;92.00
59067;DHT22;44854;50.838;4.438;2022-07-06T18:45:43;22.50;92.10
59067;DHT22;44854;50.838;4.438;2022-07-06T18:48:09;22.40;92.30
59067;DHT22;44854;50.838;4.438;2022-07-06T18:50:40;22.30;91.70
59067;DHT22;44854;50.838;4.438;2022-07-06T18:53:06;22.40;91.60
59067;DHT22;44854;50.838;4.438;2022-07-06T18:55:32;22.30;91.30
59067;DHT22;44854;50.838;4.438;2022-07-06T18:57:57;22.30;91.00
59067;DHT22;44854;50.838;4.438;2022-07-06T19:00:23;22.30;91.00
59067;DHT22;44854;50.838;4.438;2022-07-06T19:02:48;22.30;90.80
59067;DHT22;44854;50.838;4.438;2022-07-06T19:05:14;22.40;90.60
59067;DHT22;44854;50.838;4.438;2022-07-06T19:07:39;22.40;90.60
59067;DHT22;44854;50.838;4.438;2022-07-06T19:10:05;22.30;91.10
59067;DHT22;44854;50.838;4.438;2022-07-06T19:12:31;22.20;91.60
59067;DHT22;44854;50.838;4.438;2022-07-06T19:14:57;22.20;91.60
59067;DHT22;44854;50.838;4.438;2022-07-06T19:17:23;22.10;91.70
59067;DHT22;44854;50.838;4.438;2022-07-06T19:19:48;22.20;91.40
59067;DHT22;44854;50.838;4.438;2022-07-06T19:22:14;22.20;91.10
59067;DHT22;44854;50.838;4.438;2022-07-06T19:24:39;22.20;91.20
59067;DHT22;44854;50.838;4.438;2022-07-06T19:27:05;22.10;91.60
59067;DHT22;44854;50.838;4.438;2022-07-06T19:29:31;22.20;91.20
59067;DHT22;44854;50.838;4.438;2022-07-06T19:32:00;22.10;91.10
59067;DHT22;44854;50.838;4.438;2022-07-06T19:34:27;22.10;91.00
59067;DHT22;44854;50.838;4.438;2022-07-06T19:36:53;21.90;91.40
59067;DHT22;44854;50.838;4.438;2022-07-06T19:39:19;21.90;91.60
59067;DHT22;44854;50.838;4.438;2022-07-06T19:41:44;21.90;91.70